sensor_id;sensor_type;location;lat;lon;timestamp;P1;durP1;ratioP1;P2;durP2;ratioP2
20910;SDS011;10615;42.702;23.314;2023-04-25T00:00:19;4.05;;;2.90;;
20910;SDS011;10615;42.702;23.314;2023-04-25T00:01:20;3.88;;;3.08;;
20910;SDS011;10615;42.702;23.314;2023-04-25T00:02:24;5.63;;;3.50;;
20910;SDS011;10615;42.702;23.314;2023-04-25T00:03:25;3.55;;;3.25;;
20910;SDS011;10615;42.702;23.314;2023-04-25T00:04:26;4.63;;;3.00;;
20910;SDS011;10615;42.702;23.314;2023-04-25T00:05:27;4.13;;;3.17;;
20910;SDS011;10615;42.702;23.314;2023-04-25T00:06:29;5.95;;;2.83;;
20910;SDS011;10615;42.702;23.314;2023-04-25T00:07:31;5.72;;;2.90;;
20910;SDS011;10615;42.702;23.314;2023-04-25T00:08:32;4.72;;;3.20;;
20910;SDS011;10615;42.702;23.314;2023-04-25T00:09:33;5.13;;;3.47;;
20910;SDS011;10615;42.702;23.314;2023-04-25T00:10:33;6.05;;;4.05;;
20910;SDS011;10615;42.702;23.314;2023-04-25T00:11:34;3.90;;;3.15;;
20910;SDS011;10615;42.702;23.314;2023-04-25T00:12:35;3.72;;;3.20;;
20910;SDS011;10615;42.702;23.314;2023-04-25T00:13:35;4.60;;;3.10;;
20910;SDS011;10615;42.702;23.314;2023-04-25T00:14:36;4.30;;;3.17;;
20910;SDS011;10615;42.702;23.314;2023-04-25T00:15:37;6.13;;;3.50;;
20910;SDS011;10615;42.702;23.314;2023-04-25T00:16:38;4.95;;;3.38;;
20910;SDS011;10615;42.702;23.314;2023-04-25T00:17:41;3.35;;;3.05;;
20910;SDS011;10615;42.702;23.314;2023-04-25T00:18:42;4.10;;;3.10;;
20910;SDS011;10615;42.702;23.314;2023-04-25T00:19:43;3.45;;;2.92;;
20910;SDS011;10615;42.702;23.314;2023-04-25T00:20:46;5.30;;;2.80;;
20910;SDS011;10615;42.702;23.314;2023-04-25T00:21:46;4.05;;;2.90;;
20910;SDS011;10615;42.702;23.314;2023-04-25T00:22:47;4.72;;;3.20;;
20910;SDS011;10615;42.702;23.314;2023-04-25T00:23:48;3.85;;;3.47;;
20910;SDS011;10615;42.702;23.314;2023-04-25T00:24:49;6.13;;;3.35;;
20910;SDS011;10615;42.702;23.314;2023-04-25T00:25:50;4.25;;;3.38;;
20910;SDS011;10615;42.702;23.314;2023-04-25T00:26:51;4.45;;;3.35;;
20910;SDS011;10615;42.702;23.314;2023-04-25T00:27:51;3.92;;;3.53;;
20910;SDS011;10615;42.702;23.314;2023-04-25T00:28:52;5.63;;;3.50;;
20910;SDS011;10615;42.702;23.314;2023-04-25T00:29:52;4.25;;;3.40;;
20910;SDS011;10615;42.702;23.314;2023-04-25T00:30:53;5.68;;;3.42;;
20910;SDS011;10615;42.702;23.314;2023-04-25T00:31:54;4.93;;;3.47;;
20910;SDS011;10615;42.702;23.314;2023-04-25T00:32:55;5.05;;;3.65;;
20910;SDS011;10615;42.702;23.314;2023-04-25T00:33:55;4.93;;;3.70;;
20910;SDS011;10615;42.702;23.314;2023-04-25T00:34:56;4.68;;;3.50;;
20910;SDS011;10615;42.702;23.314;2023-04-25T00:35:58;4.57;;;3.58;;
20910;SDS011;10615;42.702;23.314;2023-04-25T00:36:59;4.25;;;3.40;;
20910;SDS011;10615;42.702;23.314;2023-04-25T00:38:02;4.03;;;3.45;;
20910;SDS011;10615;42.702;23.314;2023-04-25T00:39:02;4.20;;;3.30;;
20910;SDS011;10615;42.702;23.314;2023-04-25T00:40:04;4.35;;;3.70;;
20910;SDS011;10615;42.702;23.314;2023-04-25T00:41:07;4.93;;;3.60;;
20910;SDS011;10615;42.702;23.314;2023-04-25T00:42:07;5.05;;;4.10;;
20910;SDS011;10615;42.702;23.314;2023-04-25T00:43:08;4.20;;;3.80;;
20910;SDS011;10615;42.702;23.314;2023-04-25T00:44:09;8.20;;;4.05;;
20910;SDS011;10615;42.702;23.314;2023-04-25T00:45:12;5.63;;;3.80;;
20910;SDS011;10615;42.702;23.314;2023-04-25T00:46:15;5.15;;;3.80;;
20910;SDS011;10615;42.702;23.314;2023-04-25T00:47:15;5.07;;;3.85;;
20910;SDS011;10615;42.702;23.314;2023-04-25T00:48:16;5.97;;;3.83;;
20910;SDS011;10615;42.702;23.314;2023-04-25T00:49:17;4.18;;;3.78;;
20910;SDS011;10615;42.702;23.314;2023-04-25T00:50:18;4.68;;;4.20;;
20910;SDS011;10615;42.702;23.314;2023-04-25T00:51:19;5.03;;;4.22;;
20910;SDS011;10615;42.702;23.314;2023-04-25T00:52:21;4.53;;;4.10;;
20910;SDS011;10615;42.702;23.314;2023-04-25T00:53:22;4.72;;;3.85;;
20910;SDS011;10615;42.702;23.314;2023-04-25T00:54:23;5.25;;;4.40;;
20910;SDS011;10615;42.702;23.314;2023-04-25T00:55:25;5.80;;;4.30;;
20910;SDS011;10615;42.702;23.314;2023-04-25T00:56:26;5.85;;;4.03;;
20910;SDS011;10615;42.702;23.314;2023-04-25T00:57:26;7.68;;;4.40;;
20910;SDS011;10615;42.702;23.314;2023-04-25T00:58:28;4.70;;;4.05;;
20910;SDS011;10615;42.702;23.314;2023-04-25T00:59:29;4.72;;;4.07;;
20910;SDS011;10615;42.702;23.314;2023-04-25T01:00:30;4.32;;;3.92;;
20910;SDS011;10615;42.702;23.314;2023-04-25T01:01:31;6.90;;;5.35;;
20910;SDS011;10615;42.702;23.314;2023-04-25T01:02:35;7.50;;;5.20;;
20910;SDS011;10615;42.702;23.314;2023-04-25T01:03:37;5.75;;;5.10;;
20910;SDS011;10615;42.702;23.314;2023-04-25T01:04:42;6.68;;;5.35;;
20910;SDS011;10615;42.702;23.314;2023-04-25T01:05:43;5.88;;;5.28;;
20910;SDS011;10615;42.702;23.314;2023-04-25T01:06:44;5.43;;;4.93;;
20910;SDS011;10615;42.702;23.314;2023-04-25T01:07:45;5.78;;;5.15;;
20910;SDS011;10615;42.702;23.314;2023-04-25T01:08:47;6.80;;;4.85;;
20910;SDS011;10615;42.702;23.314;2023-04-25T01:09:47;6.47;;;5.10;;
20910;SDS011;10615;42.702;23.314;2023-04-25T01:10:48;5.93;;;5.40;;
20910;SDS011;10615;42.702;23.314;2023-04-25T01:11:49;7.55;;;5.38;;
20910;SDS011;10615;42.702;23.314;2023-04-25T01:12:50;6.40;;;5.65;;
20910;SDS011;10615;42.702;23.314;2023-04-25T01:13:50;6.45;;;5.10;;
20910;SDS011;10615;42.702;23.314;2023-04-25T01:14:51;5.90;;;5.28;;
20910;SDS011;10615;42.702;23.314;2023-04-25T01:15:52;6.53;;;5.88;;
20910;SDS011;10615;42.702;23.314;2023-04-25T01:16:52;6.97;;;5.78;;
20910;SDS011;10615;42.702;23.314;2023-04-25T01:17:54;6.65;;;5.75;;
20910;SDS011;10615;42.702;23.314;2023-04-25T01:18:55;6.00;;;5.40;;
20910;SDS011;10615;42.702;23.314;2023-04-25T01:19:56;6.53;;;5.85;;
20910;SDS011;10615;42.702;23.314;2023-04-25T01:21:02;6.82;;;5.57;;
20910;SDS011;10615;42.702;23.314;2023-04-25T01:22:10;6.38;;;5.78;;
20910;SDS011;10615;42.702;23.314;2023-04-25T01:23:11;7.78;;;5.82;;
20910;SDS011;10615;42.702;23.314;2023-04-25T01:24:13;5.47;;;4.93;;
20910;SDS011;10615;42.702;23.314;2023-04-25T01:25:14;7.47;;;5.38;;
20910;SDS011;10615;42.702;23.314;2023-04-25T01:26:15;5.68;;;4.78;;
20910;SDS011;10615;42.702;23.314;2023-04-25T01:27:16;4.65;;;4.25;;
20910;SDS011;10615;42.702;23.314;2023-04-25T01:28:17;6.25;;;4.97;;
20910;SDS011;10615;42.702;23.314;2023-04-25T01:29:19;5.15;;;4.68;;
20910;SDS011;10615;42.702;23.314;2023-04-25T01:30:20;5.65;;;5.13;;
20910;SDS011;10615;42.702;23.314;2023-04-25T01:31:21;6.38;;;5.35;;
20910;SDS011;10615;42.702;23.314;2023-04-25T01:32:23;6.05;;;5.45;;
20910;SDS011;10615;42.702;23.314;2023-04-25T01:33:23;6.18;;;5.18;;
20910;SDS011;10615;42.702;23.314;2023-04-25T01:34:24;5.70;;;5.10;;
20910;SDS011;10615;42.702;23.314;2023-04-25T01:35:25;5.85;;;5.20;;
20910;SDS011;10615;42.702;23.314;2023-04-25T01:36:26;5.88;;;5.32;;
20910;SDS011;10615;42.702;23.314;2023-04-25T01:37:27;7.25;;;4.90;;
20910;SDS011;10615;42.702;23.314;2023-04-25T01:38:28;5.47;;;4.90;;
20910;SDS011;10615;42.702;23.314;2023-04-25T01:39:28;6.05;;;5.13;;
20910;SDS011;10615;42.702;23.314;2023-04-25T01:40:29;5.55;;;5.05;;
20910;SDS011;10615;42.702;23.314;2023-04-25T01:41:31;8.27;;;5.18;;
20910;SDS011;10615;42.702;23.314;2023-04-25T01:42:35;5.53;;;5.03;;
20910;SDS011;10615;42.702;23.314;2023-04-25T01:43:37;6.00;;;5.25;;
20910;SDS011;10615;42.702;23.314;2023-04-25T01:44:38;5.80;;;5.20;;
20910;SDS011;10615;42.702;23.314;2023-04-25T01:45:38;5.85;;;5.22;;
20910;SDS011;10615;42.702;23.314;2023-04-25T01:46:41;5.45;;;4.88;;
20910;SDS011;10615;42.702;23.314;2023-04-25T01:47:41;5.80;;;4.90;;
20910;SDS011;10615;42.702;23.314;2023-04-25T01:48:43;5.57;;;4.80;;
20910;SDS011;10615;42.702;23.314;2023-04-25T01:49:44;5.05;;;4.55;;
20910;SDS011;10615;42.702;23.314;2023-04-25T01:50:45;6.22;;;4.85;;
20910;SDS011;10615;42.702;23.314;2023-04-25T01:51:46;5.93;;;5.32;;
20910;SDS011;10615;42.702;23.314;2023-04-25T01:52:46;6.07;;;5.20;;
20910;SDS011;10615;42.702;23.314;2023-04-25T01:53:48;5.55;;;5.05;;
20910;SDS011;10615;42.702;23.314;2023-04-25T01:54:49;5.70;;;5.20;;
20910;SDS011;10615;42.702;23.314;2023-04-25T01:55:51;7.22;;;5.00;;
20910;SDS011;10615;42.702;23.314;2023-04-25T01:56:51;5.50;;;4.93;;
20910;SDS011;10615;42.702;23.314;2023-04-25T01:57:52;5.72;;;5.13;;
20910;SDS011;10615;42.702;23.314;2023-04-25T01:58:53;5.60;;;5.10;;
20910;SDS011;10615;42.702;23.314;2023-04-25T01:59:55;7.53;;;5.13;;
20910;SDS011;10615;42.702;23.314;2023-04-25T02:01:00;5.60;;;5.10;;
20910;SDS011;10615;42.702;23.314;2023-04-25T02:02:01;5.38;;;4.85;;
20910;SDS011;10615;42.702;23.314;2023-04-25T02:03:03;5.30;;;4.72;;
20910;SDS011;10615;42.702;23.314;2023-04-25T02:04:05;6.38;;;5.05;;
20910;SDS011;10615;42.702;23.314;2023-04-25T02:05:06;5.50;;;5.00;;
20910;SDS011;10615;42.702;23.314;2023-04-25T02:06:07;7.13;;;5.68;;
20910;SDS011;10615;42.702;23.314;2023-04-25T02:07:07;6.20;;;5.55;;
20910;SDS011;10615;42.702;23.314;2023-04-25T02:08:08;6.20;;;5.60;;
20910;SDS011;10615;42.702;23.314;2023-04-25T02:09:09;5.55;;;5.05;;
20910;SDS011;10615;42.702;23.314;2023-04-25T02:10:10;5.97;;;5.38;;
20910;SDS011;10615;42.702;23.314;2023-04-25T02:11:29;7.50;;;5.10;;
20910;SDS011;10615;42.702;23.314;2023-04-25T02:12:30;4.85;;;4.43;;
20910;SDS011;10615;42.702;23.314;2023-04-25T02:13:31;4.75;;;4.18;;
20910;SDS011;10615;42.702;23.314;2023-04-25T02:14:32;4.90;;;4.10;;
20910;SDS011;10615;42.702;23.314;2023-04-25T02:15:33;3.97;;;3.67;;
20910;SDS011;10615;42.702;23.314;2023-04-25T02:16:33;4.32;;;3.90;;
20910;SDS011;10615;42.702;23.314;2023-04-25T02:17:35;4.50;;;4.00;;
20910;SDS011;10615;42.702;23.314;2023-04-25T02:18:36;4.78;;;4.32;;
20910;SDS011;10615;42.702;23.314;2023-04-25T02:19:37;4.30;;;3.90;;
20910;SDS011;10615;42.702;23.314;2023-04-25T02:20:38;5.72;;;4.78;;
20910;SDS011;10615;42.702;23.314;2023-04-25T02:21:39;4.70;;;4.30;;
20910;SDS011;10615;42.702;23.314;2023-04-25T02:22:40;5.90;;;4.40;;
20910;SDS011;10615;42.702;23.314;2023-04-25T02:23:40;5.43;;;4.35;;
20910;SDS011;10615;42.702;23.314;2023-04-25T02:24:41;4.70;;;4.30;;
20910;SDS011;10615;42.702;23.314;2023-04-25T02:25:42;4.53;;;4.13;;
20910;SDS011;10615;42.702;23.314;2023-04-25T02:26:42;6.03;;;4.45;;
20910;SDS011;10615;42.702;23.314;2023-04-25T02:27:44;6.55;;;4.50;;
20910;SDS011;10615;42.702;23.314;2023-04-25T02:28:44;5.28;;;4.72;;
20910;SDS011;10615;42.702;23.314;2023-04-25T02:29:45;4.88;;;4.22;;
20910;SDS011;10615;42.702;23.314;2023-04-25T02:30:45;5.03;;;4.32;;
20910;SDS011;10615;42.702;23.314;2023-04-25T02:31:46;5.50;;;4.68;;
20910;SDS011;10615;42.702;23.314;2023-04-25T02:32:47;5.47;;;4.75;;
20910;SDS011;10615;42.702;23.314;2023-04-25T02:33:48;5.25;;;4.75;;
20910;SDS011;10615;42.702;23.314;2023-04-25T02:34:48;4.82;;;4.35;;
20910;SDS011;10615;42.702;23.314;2023-04-25T02:35:49;4.70;;;3.80;;
20910;SDS011;10615;42.702;23.314;2023-04-25T02:36:50;5.35;;;4.43;;
20910;SDS011;10615;42.702;23.314;2023-04-25T02:37:50;4.65;;;4.25;;
20910;SDS011;10615;42.702;23.314;2023-04-25T02:38:51;4.55;;;4.15;;
20910;SDS011;10615;42.702;23.314;2023-04-25T02:39:52;6.38;;;4.35;;
20910;SDS011;10615;42.702;23.314;2023-04-25T02:40:52;5.05;;;4.55;;
20910;SDS011;10615;42.702;23.314;2023-04-25T02:41:53;4.65;;;4.20;;
20910;SDS011;10615;42.702;23.314;2023-04-25T02:42:54;4.80;;;4.40;;
20910;SDS011;10615;42.702;23.314;2023-04-25T02:43:54;5.03;;;4.53;;
20910;SDS011;10615;42.702;23.314;2023-04-25T02:44:55;5.35;;;4.45;;
20910;SDS011;10615;42.702;23.314;2023-04-25T02:45:56;4.38;;;3.97;;
20910;SDS011;10615;42.702;23.314;2023-04-25T02:46:56;5.75;;;4.60;;
20910;SDS011;10615;42.702;23.314;2023-04-25T02:47:57;5.45;;;4.80;;
20910;SDS011;10615;42.702;23.314;2023-04-25T02:48:58;5.32;;;4.60;;
20910;SDS011;10615;42.702;23.314;2023-04-25T02:49:58;5.00;;;4.50;;
20910;SDS011;10615;42.702;23.314;2023-04-25T02:50:59;4.88;;;4.38;;
20910;SDS011;10615;42.702;23.314;2023-04-25T02:52:00;5.75;;;5.15;;
20910;SDS011;10615;42.702;23.314;2023-04-25T02:53:00;5.25;;;4.68;;
20910;SDS011;10615;42.702;23.314;2023-04-25T02:54:01;5.28;;;4.78;;
20910;SDS011;10615;42.702;23.314;2023-04-25T02:55:02;5.60;;;5.10;;
20910;SDS011;10615;42.702;23.314;2023-04-25T02:56:03;5.72;;;4.85;;
20910;SDS011;10615;42.702;23.314;2023-04-25T02:57:04;5.28;;;4.40;;
20910;SDS011;10615;42.702;23.314;2023-04-25T02:58:04;5.78;;;5.05;;
20910;SDS011;10615;42.702;23.314;2023-04-25T02:59:05;6.40;;;5.07;;
20910;SDS011;10615;42.702;23.314;2023-04-25T03:00:06;5.47;;;4.95;;
20910;SDS011;10615;42.702;23.314;2023-04-25T03:01:07;5.15;;;4.50;;
20910;SDS011;10615;42.702;23.314;2023-04-25T03:02:08;5.15;;;3.97;;
20910;SDS011;10615;42.702;23.314;2023-04-25T03:03:10;5.60;;;4.93;;
20910;SDS011;10615;42.702;23.314;2023-04-25T03:04:10;5.25;;;4.75;;
20910;SDS011;10615;42.702;23.314;2023-04-25T03:05:11;5.35;;;4.70;;
20910;SDS011;10615;42.702;23.314;2023-04-25T03:06:12;5.03;;;4.60;;
20910;SDS011;10615;42.702;23.314;2023-04-25T03:07:12;5.45;;;4.95;;
20910;SDS011;10615;42.702;23.314;2023-04-25T03:08:13;6.00;;;4.55;;
20910;SDS011;10615;42.702;23.314;2023-04-25T03:09:14;6.30;;;4.50;;
20910;SDS011;10615;42.702;23.314;2023-04-25T03:10:15;6.15;;;4.55;;
20910;SDS011;10615;42.702;23.314;2023-04-25T03:11:15;5.43;;;4.43;;
20910;SDS011;10615;42.702;23.314;2023-04-25T03:12:16;5.75;;;5.15;;
20910;SDS011;10615;42.702;23.314;2023-04-25T03:13:17;6.13;;;4.78;;
20910;SDS011;10615;42.702;23.314;2023-04-25T03:14:17;5.05;;;4.60;;
20910;SDS011;10615;42.702;23.314;2023-04-25T03:15:18;5.50;;;4.97;;
20910;SDS011;10615;42.702;23.314;2023-04-25T03:16:19;6.15;;;5.10;;
20910;SDS011;10615;42.702;23.314;2023-04-25T03:17:19;6.10;;;5.50;;
20910;SDS011;10615;42.702;23.314;2023-04-25T03:18:20;4.90;;;4.40;;
20910;SDS011;10615;42.702;23.314;2023-04-25T03:19:20;4.90;;;4.50;;
20910;SDS011;10615;42.702;23.314;2023-04-25T03:20:21;4.72;;;4.32;;
20910;SDS011;10615;42.702;23.314;2023-04-25T03:21:22;5.35;;;4.80;;
20910;SDS011;10615;42.702;23.314;2023-04-25T03:22:23;5.80;;;4.65;;
20910;SDS011;10615;42.702;23.314;2023-04-25T03:23:23;6.38;;;5.20;;
20910;SDS011;10615;42.702;23.314;2023-04-25T03:24:24;5.25;;;4.75;;
20910;SDS011;10615;42.702;23.314;2023-04-25T03:25:26;5.40;;;4.63;;
20910;SDS011;10615;42.702;23.314;2023-04-25T03:26:26;6.10;;;5.10;;
20910;SDS011;10615;42.702;23.314;2023-04-25T03:27:27;5.25;;;4.70;;
20910;SDS011;10615;42.702;23.314;2023-04-25T03:28:28;5.32;;;4.68;;
20910;SDS011;10615;42.702;23.314;2023-04-25T03:29:29;5.22;;;4.30;;
20910;SDS011;10615;42.702;23.314;2023-04-25T03:30:29;6.13;;;4.95;;
20910;SDS011;10615;42.702;23.314;2023-04-25T03:31:30;5.65;;;5.15;;
20910;SDS011;10615;42.702;23.314;2023-04-25T03:32:31;5.32;;;4.82;;
20910;SDS011;10615;42.702;23.314;2023-04-25T03:33:32;6.82;;;5.05;;
20910;SDS011;10615;42.702;23.314;2023-04-25T03:34:32;6.15;;;5.55;;
20910;SDS011;10615;42.702;23.314;2023-04-25T03:35:33;6.72;;;5.78;;
20910;SDS011;10615;42.702;23.314;2023-04-25T03:36:33;6.70;;;6.00;;
20910;SDS011;10615;42.702;23.314;2023-04-25T03:37:34;6.20;;;5.40;;
20910;SDS011;10615;42.702;23.314;2023-04-25T03:38:35;5.20;;;4.80;;
20910;SDS011;10615;42.702;23.314;2023-04-25T03:39:36;5.90;;;5.30;;
20910;SDS011;10615;42.702;23.314;2023-04-25T03:40:37;6.28;;;5.53;;
20910;SDS011;10615;42.702;23.314;2023-04-25T03:41:38;6.88;;;6.18;;
20910;SDS011;10615;42.702;23.314;2023-04-25T03:42:38;8.65;;;5.78;;
20910;SDS011;10615;42.702;23.314;2023-04-25T03:43:39;7.45;;;5.80;;
20910;SDS011;10615;42.702;23.314;2023-04-25T03:44:40;6.18;;;5.57;;
20910;SDS011;10615;42.702;23.314;2023-04-25T03:45:40;5.80;;;5.20;;
20910;SDS011;10615;42.702;23.314;2023-04-25T03:46:41;6.68;;;5.68;;
20910;SDS011;10615;42.702;23.314;2023-04-25T03:47:42;12.00;;;8.15;;
20910;SDS011;10615;42.702;23.314;2023-04-25T03:48:42;31.75;;;28.50;;
20910;SDS011;10615;42.702;23.314;2023-04-25T03:49:43;29.10;;;26.20;;
20910;SDS011;10615;42.702;23.314;2023-04-25T03:50:44;29.33;;;26.45;;
20910;SDS011;10615;42.702;23.314;2023-04-25T03:51:45;16.65;;;14.98;;
20910;SDS011;10615;42.702;23.314;2023-04-25T03:52:45;13.52;;;12.23;;
20910;SDS011;10615;42.702;23.314;2023-04-25T03:53:47;8.68;;;7.88;;
20910;SDS011;10615;42.702;23.314;2023-04-25T03:54:48;7.25;;;6.45;;
20910;SDS011;10615;42.702;23.314;2023-04-25T03:55:48;6.38;;;5.78;;
20910;SDS011;10615;42.702;23.314;2023-04-25T03:56:49;7.05;;;6.35;;
20910;SDS011;10615;42.702;23.314;2023-04-25T03:57:50;6.88;;;6.10;;
20910;SDS011;10615;42.702;23.314;2023-04-25T03:58:50;6.63;;;5.55;;
20910;SDS011;10615;42.702;23.314;2023-04-25T03:59:51;5.55;;;5.05;;
20910;SDS011;10615;42.702;23.314;2023-04-25T04:00:52;6.38;;;5.00;;
20910;SDS011;10615;42.702;23.314;2023-04-25T04:01:52;5.75;;;4.35;;
20910;SDS011;10615;42.702;23.314;2023-04-25T04:02:54;5.00;;;4.50;;
20910;SDS011;10615;42.702;23.314;2023-04-25T04:03:54;5.43;;;4.88;;
20910;SDS011;10615;42.702;23.314;2023-04-25T04:04:55;4.30;;;3.90;;
20910;SDS011;10615;42.702;23.314;2023-04-25T04:05:56;4.97;;;4.55;;
20910;SDS011;10615;42.702;23.314;2023-04-25T04:06:57;6.78;;;4.78;;
20910;SDS011;10615;42.702;23.314;2023-04-25T04:07:58;5.20;;;4.70;;
20910;SDS011;10615;42.702;23.314;2023-04-25T04:08:59;5.13;;;4.63;;
20910;SDS011;10615;42.702;23.314;2023-04-25T04:09:59;4.63;;;4.22;;
20910;SDS011;10615;42.702;23.314;2023-04-25T04:11:00;4.95;;;4.00;;
20910;SDS011;10615;42.702;23.314;2023-04-25T04:12:01;7.00;;;4.45;;
20910;SDS011;10615;42.702;23.314;2023-04-25T04:13:02;4.82;;;4.15;;
20910;SDS011;10615;42.702;23.314;2023-04-25T04:14:03;4.78;;;4.20;;
20910;SDS011;10615;42.702;23.314;2023-04-25T04:15:07;9.15;;;4.57;;
20910;SDS011;10615;42.702;23.314;2023-04-25T04:16:08;9.23;;;4.30;;
20910;SDS011;10615;42.702;23.314;2023-04-25T04:17:09;5.20;;;4.57;;
20910;SDS011;10615;42.702;23.314;2023-04-25T04:18:10;5.00;;;4.53;;
20910;SDS011;10615;42.702;23.314;2023-04-25T04:19:11;5.72;;;5.07;;
20910;SDS011;10615;42.702;23.314;2023-04-25T04:20:11;5.32;;;4.82;;
20910;SDS011;10615;42.702;23.314;2023-04-25T04:21:12;4.93;;;4.53;;
20910;SDS011;10615;42.702;23.314;2023-04-25T04:22:13;5.50;;;5.00;;
20910;SDS011;10615;42.702;23.314;2023-04-25T04:23:14;5.50;;;5.00;;
20910;SDS011;10615;42.702;23.314;2023-04-25T04:24:14;6.10;;;5.13;;
20910;SDS011;10615;42.702;23.314;2023-04-25T04:25:16;6.15;;;5.55;;
20910;SDS011;10615;42.702;23.314;2023-04-25T04:26:18;6.00;;;5.40;;
20910;SDS011;10615;42.702;23.314;2023-04-25T04:27:18;6.78;;;5.22;;
20910;SDS011;10615;42.702;23.314;2023-04-25T04:28:19;7.20;;;5.20;;
20910;SDS011;10615;42.702;23.314;2023-04-25T04:29:21;6.07;;;5.43;;
20910;SDS011;10615;42.702;23.314;2023-04-25T04:30:23;6.05;;;5.32;;
20910;SDS011;10615;42.702;23.314;2023-04-25T04:31:24;6.57;;;5.55;;
20910;SDS011;10615;42.702;23.314;2023-04-25T04:32:25;6.32;;;5.50;;
20910;SDS011;10615;42.702;23.314;2023-04-25T04:33:25;10.65;;;5.47;;
20910;SDS011;10615;42.702;23.314;2023-04-25T04:34:26;6.47;;;5.38;;
20910;SDS011;10615;42.702;23.314;2023-04-25T04:35:27;6.32;;;5.72;;
20910;SDS011;10615;42.702;23.314;2023-04-25T04:36:27;7.03;;;5.90;;
20910;SDS011;10615;42.702;23.314;2023-04-25T04:37:28;7.60;;;5.47;;
20910;SDS011;10615;42.702;23.314;2023-04-25T04:38:29;9.80;;;5.90;;
20910;SDS011;10615;42.702;23.314;2023-04-25T04:39:30;6.93;;;5.55;;
20910;SDS011;10615;42.702;23.314;2023-04-25T04:40:31;9.95;;;5.78;;
20910;SDS011;10615;42.702;23.314;2023-04-25T04:41:32;9.50;;;5.68;;
20910;SDS011;10615;42.702;23.314;2023-04-25T04:42:32;7.55;;;6.60;;
20910;SDS011;10615;42.702;23.314;2023-04-25T04:43:33;7.45;;;6.68;;
20910;SDS011;10615;42.702;23.314;2023-04-25T04:44:34;8.50;;;7.40;;
20910;SDS011;10615;42.702;23.314;2023-04-25T04:45:35;7.55;;;6.38;;
20910;SDS011;10615;42.702;23.314;2023-04-25T04:46:38;9.20;;;6.68;;
20910;SDS011;10615;42.702;23.314;2023-04-25T04:47:41;7.82;;;6.93;;
20910;SDS011;10615;42.702;23.314;2023-04-25T04:48:43;8.60;;;6.70;;
20910;SDS011;10615;42.702;23.314;2023-04-25T04:49:44;8.25;;;6.88;;
20910;SDS011;10615;42.702;23.314;2023-04-25T04:50:45;7.50;;;6.30;;
20910;SDS011;10615;42.702;23.314;2023-04-25T04:51:45;9.00;;;7.20;;
20910;SDS011;10615;42.702;23.314;2023-04-25T04:52:47;7.18;;;6.50;;
20910;SDS011;10615;42.702;23.314;2023-04-25T04:53:47;7.97;;;6.50;;
20910;SDS011;10615;42.702;23.314;2023-04-25T04:54:48;7.97;;;7.18;;
20910;SDS011;10615;42.702;23.314;2023-04-25T04:55:48;7.78;;;6.97;;
20910;SDS011;10615;42.702;23.314;2023-04-25T04:56:49;8.13;;;7.30;;
20910;SDS011;10615;42.702;23.314;2023-04-25T04:57:52;7.55;;;6.82;;
20910;SDS011;10615;42.702;23.314;2023-04-25T04:58:53;7.72;;;6.93;;
20910;SDS011;10615;42.702;23.314;2023-04-25T04:59:53;7.80;;;7.00;;
20910;SDS011;10615;42.702;23.314;2023-04-25T05:00:54;7.80;;;6.63;;
20910;SDS011;10615;42.702;23.314;2023-04-25T05:01:55;7.88;;;6.80;;
20910;SDS011;10615;42.702;23.314;2023-04-25T05:02:56;8.65;;;6.50;;
20910;SDS011;10615;42.702;23.314;2023-04-25T05:03:56;7.78;;;6.97;;
20910;SDS011;10615;42.702;23.314;2023-04-25T05:05:00;7.57;;;6.88;;
20910;SDS011;10615;42.702;23.314;2023-04-25T05:06:00;9.65;;;8.15;;
20910;SDS011;10615;42.702;23.314;2023-04-25T05:07:01;8.10;;;7.18;;
20910;SDS011;10615;42.702;23.314;2023-04-25T05:08:02;9.82;;;7.25;;
20910;SDS011;10615;42.702;23.314;2023-04-25T05:09:03;10.85;;;7.47;;
20910;SDS011;10615;42.702;23.314;2023-04-25T05:10:04;9.70;;;7.90;;
20910;SDS011;10615;42.702;23.314;2023-04-25T05:11:05;9.68;;;7.95;;
20910;SDS011;10615;42.702;23.314;2023-04-25T05:12:06;9.13;;;8.23;;
20910;SDS011;10615;42.702;23.314;2023-04-25T05:13:07;11.48;;;8.25;;
20910;SDS011;10615;42.702;23.314;2023-04-25T05:14:07;8.88;;;7.97;;
20910;SDS011;10615;42.702;23.314;2023-04-25T05:15:08;9.18;;;8.13;;
20910;SDS011;10615;42.702;23.314;2023-04-25T05:16:09;10.10;;;8.15;;
20910;SDS011;10615;42.702;23.314;2023-04-25T05:17:10;10.27;;;8.00;;
20910;SDS011;10615;42.702;23.314;2023-04-25T05:18:11;9.55;;;8.00;;
20910;SDS011;10615;42.702;23.314;2023-04-25T05:19:11;8.95;;;8.05;;
20910;SDS011;10615;42.702;23.314;2023-04-25T05:20:12;9.23;;;8.32;;
20910;SDS011;10615;42.702;23.314;2023-04-25T05:21:14;10.35;;;8.57;;
20910;SDS011;10615;42.702;23.314;2023-04-25T05:22:14;9.63;;;8.63;;
20910;SDS011;10615;42.702;23.314;2023-04-25T05:23:15;10.32;;;8.43;;
20910;SDS011;10615;42.702;23.314;2023-04-25T05:24:16;9.45;;;8.45;;
20910;SDS011;10615;42.702;23.314;2023-04-25T05:25:17;10.30;;;8.38;;
20910;SDS011;10615;42.702;23.314;2023-04-25T05:26:17;9.60;;;8.70;;
20910;SDS011;10615;42.702;23.314;2023-04-25T05:27:18;10.90;;;8.95;;
20910;SDS011;10615;42.702;23.314;2023-04-25T05:28:20;10.73;;;9.60;;
20910;SDS011;10615;42.702;23.314;2023-04-25T05:29:21;12.88;;;8.68;;
20910;SDS011;10615;42.702;23.314;2023-04-25T05:30:22;10.15;;;9.13;;
20910;SDS011;10615;42.702;23.314;2023-04-25T05:31:22;10.27;;;8.43;;
20910;SDS011;10615;42.702;23.314;2023-04-25T05:32:23;11.45;;;8.73;;
20910;SDS011;10615;42.702;23.314;2023-04-25T05:33:24;11.90;;;8.50;;
20910;SDS011;10615;42.702;23.314;2023-04-25T05:34:25;10.77;;;8.50;;
20910;SDS011;10615;42.702;23.314;2023-04-25T05:35:26;13.40;;;8.98;;
20910;SDS011;10615;42.702;23.314;2023-04-25T05:36:27;17.23;;;11.60;;
20910;SDS011;10615;42.702;23.314;2023-04-25T05:37:28;15.70;;;11.43;;
20910;SDS011;10615;42.702;23.314;2023-04-25T05:38:31;13.93;;;9.75;;
20910;SDS011;10615;42.702;23.314;2023-04-25T05:39:31;14.23;;;8.82;;
20910;SDS011;10615;42.702;23.314;2023-04-25T05:40:32;10.23;;;7.53;;
20910;SDS011;10615;42.702;23.314;2023-04-25T05:41:33;9.05;;;7.43;;
20910;SDS011;10615;42.702;23.314;2023-04-25T05:42:33;12.20;;;8.27;;
20910;SDS011;10615;42.702;23.314;2023-04-25T05:43:34;10.88;;;8.23;;
20910;SDS011;10615;42.702;23.314;2023-04-25T05:44:35;15.80;;;9.00;;
20910;SDS011;10615;42.702;23.314;2023-04-25T05:45:36;18.13;;;13.90;;
20910;SDS011;10615;42.702;23.314;2023-04-25T05:46:36;23.15;;;19.15;;
20910;SDS011;10615;42.702;23.314;2023-04-25T05:47:37;18.45;;;14.95;;
20910;SDS011;10615;42.702;23.314;2023-04-25T05:48:38;12.20;;;10.90;;
20910;SDS011;10615;42.702;23.314;2023-04-25T05:49:39;10.32;;;8.77;;
20910;SDS011;10615;42.702;23.314;2023-04-25T05:50:40;10.23;;;8.07;;
20910;SDS011;10615;42.702;23.314;2023-04-25T05:51:41;13.38;;;8.52;;
20910;SDS011;10615;42.702;23.314;2023-04-25T05:52:41;11.88;;;8.07;;
20910;SDS011;10615;42.702;23.314;2023-04-25T05:53:42;10.13;;;8.50;;
20910;SDS011;10615;42.702;23.314;2023-04-25T05:54:43;10.82;;;8.77;;
20910;SDS011;10615;42.702;23.314;2023-04-25T05:55:43;11.05;;;9.85;;
20910;SDS011;10615;42.702;23.314;2023-04-25T05:56:44;18.35;;;15.68;;
20910;SDS011;10615;42.702;23.314;2023-04-25T05:57:45;10.90;;;9.48;;
20910;SDS011;10615;42.702;23.314;2023-04-25T05:58:45;14.18;;;12.43;;
20910;SDS011;10615;42.702;23.314;2023-04-25T05:59:46;8.70;;;7.07;;
20910;SDS011;10615;42.702;23.314;2023-04-25T06:00:47;7.30;;;6.60;;
20910;SDS011;10615;42.702;23.314;2023-04-25T06:01:48;7.57;;;6.78;;